• Join FlightAware (Why Join?)
  • Login
  • US Flag 
08:38AM EDT


 

Airport Tracker/Info


-or-


 

Live Flight TrackerFlight Track Log ✈ N175HQ ✈ 08-Apr-2013 ✈ KOKC - KDEN

Flight Track Log - Related Links

Times and Time Zones

All times are in EDT time to prevent confusion due to time zone crossing. See the N175HQ flight status page for this flight to view local times or setup timezone preferences in your user account.

Time Position Orientation Groundspeed Altitude Reporting Facility
EDT Latitude Longitude Course Direction KTS MPH feet Rate Location/Type
02:32PM 35.3811 -97.6097 250° West 135 155 1,900  Level Fort Worth Center
02:33PM 35.3622 -97.6731 250° West 224 258 4,700 2,220 Climbing Fort Worth Center
02:34PM 35.3975 -97.7472 300° West 284 327 7,100 2,400 Climbing Fort Worth Center
02:35PM 35.4181 -97.7828 305° West 283 326 8,500 3,120 Climbing Fort Worth Center
02:35PM 35.4306 -97.8264 289° West 289 333 10,000 2,880 Climbing Fort Worth Center
02:36PM 35.4386 -97.8747 282° West 283 326 11,400 2,580 Climbing Fort Worth Center
02:37PM 35.4508 -97.9742 279° West 297 342 14,300 2,880 Climbing Fort Worth Center
02:38PM 35.4628 -98.0786 278° West 302 348 17,200 2,640 Climbing Fort Worth Center
02:39PM 35.4767 -98.1858 279° West 308 354 19,600 2,340 Climbing Fort Worth Center
02:40PM 35.4969 -98.2983 283° West 326 375 21,900 2,160 Climbing Fort Worth Center
02:41PM 35.5211 -98.4108 285° West 337 388 24,000 2,100 Climbing Fort Worth Center
02:42PM 35.5828 -98.5264 303° West 342 394 26,100 1,740 Climbing Fort Worth Center
02:44PM 35.7147 -98.7242 309° West 388 447 29,200 1,380 Climbing Kansas City Center
02:45PM 35.7817 -98.8256 309° West 397 457 30,400 1,320 Climbing Kansas City Center
02:46PM 35.8517 -98.9350 308° West 404 465 32,000 1,500 Climbing Kansas City Center
02:47PM 35.9208 -99.0411 309° West 401 461 33,500 1,560 Climbing Kansas City Center
02:48PM 36.0019 -99.1672 309° West 395 455 35,300 1,200 Climbing Kansas City Center
02:49PM 36.0694 -99.2689 309° West 389 448 36,000 300 Climbing Kansas City Center
02:50PM 36.1336 -99.3719 308° West 389 448 36,000  Level Kansas City Center
02:51PM 36.2017 -99.4786 308° West 392 451 36,000  Level Kansas City Center
02:52PM 36.2694 -99.5842 309° West 392 451 36,000  Level Kansas City Center
02:53PM 36.3381 -99.6922 308° West 394 453 36,000  Level Kansas City Center
02:54PM 36.4203 -99.8217 308° West 397 457 36,000  Level Kansas City Center
02:55PM 36.4883 -99.9289 308° West 395 455 36,000  Level Kansas City Center
02:56PM 36.5561 -100.0367 308° West 395 455 36,000  Level Kansas City Center
02:57PM 36.6239 -100.1453 308° West 396 456 36,000  Level Kansas City Center
02:58PM 36.6933 -100.2556 308° West 400 460 36,000  Level Kansas City Center
02:59PM 36.7717 -100.3800 308° West 401 461 36,000  Level Kansas City Center
03:00PM 36.8358 -100.4850 307° West 398 458 36,000  Level Kansas City Center
03:01PM 36.9003 -100.5894 308° West 397 457 36,000  Level Kansas City Center
03:02PM 36.9758 -100.7122 308° West 397 457 36,000  Level Kansas City Center
03:03PM 37.0408 -100.8181 308° West 399 459 36,000  Level Kansas City Center
03:04PM 37.1161 -100.9417 307° West 399 459 36,000  Level Kansas City Center
03:05PM 37.1819 -101.0489 308° West 402 463 36,000  Level Kansas City Center
03:06PM 37.2469 -101.1572 307° West 403 464 36,000  Level Kansas City Center
03:08PM 37.3878 -101.3900 307° West 400 460 36,000  Level Kansas City Center
03:09PM 37.4636 -101.5156 307° West 400 460 36,000  Level Kansas City Center
03:10PM 37.5278 -101.6231 307° West 400 460 36,000  Level Kansas City Center
03:11PM 37.6008 -101.7469 307° West 395 455 36,000  Level Kansas City Center
03:13PM 37.6647 -101.8528 307° West 394 453 36,000  Level Kansas City Center
03:14PM 37.7264 -101.9594 306° West 393 452 36,000  Level Kansas City Center
03:15PM 37.8000 -102.0806 308° West 390 449 36,000  Level Kansas City Center
03:16PM 37.8642 -102.1822 309° West 387 445 36,000  Level Kansas City Center
03:17PM 37.9486 -102.2925 314° West 388 447 36,000  Level Kansas City Center
03:18PM 38.0197 -102.3894 313° West 391 450 36,000  Level Kansas City Center
03:19PM 38.1142 -102.5183 313° West 390 449 36,000 -300 Level Denver Center
03:20PM 38.1853 -102.6164 313° West 393 452 35,400 -1,020 Descending Denver Center
03:21PM 38.2706 -102.7339 313° West 403 464 34,000 -1,320 Descending Denver Center
03:22PM 38.3481 -102.8372 314° West 417 480 32,700 -1,380 Descending Denver Center
03:23PM 38.4350 -102.9603 312° West 420 483 31,200 -1,320 Descending Denver Center
03:24PM 38.5114 -103.0664 313° West 423 487 30,000 -600 Descending Denver Center
03:25PM 38.5772 -103.1564 313° West 418 481 30,000  Level Denver Center
03:26PM 38.6675 -103.2847 312° West 414 476 30,000  Level Denver Center
03:27PM 38.7611 -103.4136 313° West 419 482 30,000  Level Denver Center
03:28PM 38.8375 -103.5217 312° West 418 481 30,000  Level Denver Center
03:29PM 38.9181 -103.6369 312° West 418 481 30,000 -300 Level Denver Center
03:30PM 38.9972 -103.7492 312° West 421 484 29,400 -1,380 Descending Denver Center
03:31PM 39.0758 -103.8597 313° West 415 478 27,200 -2,100 Descending Denver Center
03:32PM 39.1506 -103.9675 312° West 401 461 25,100 -2,040 Descending Denver Center
03:33PM 39.2222 -104.0703 312° West 387 445 23,100 -2,340 Descending Denver Center
03:34PM 39.3156 -104.1714 320° Northwest 395 455 20,400 -2,340 Descending Denver Center
03:35PM 39.4064 -104.2472 327° Northwest 390 449 18,300 -1,680 Descending Denver Center
03:36PM 39.4944 -104.3186 328° Northwest 376 433 17,000 -660 Descending Denver Center
03:37PM 39.5892 -104.3944 328° Northwest 372 428 17,000 -840 Level Denver Center
03:38PM 39.6753 -104.4650 328° Northwest 368 423 15,300 -1,740 Descending Denver Center
03:39PM 39.7633 -104.5211 334° Northwest 342 394 13,500 -1,800 Descending Denver Center
03:41PM 39.8606 -104.5233 359° North 318 366 11,700 -1,320 Descending Denver Center
03:41PM 39.9333 -104.5167 North 281 323 11,000 -900 Descending Denver TRACON
03:42PM 40.0167 -104.5167 360° North 274 315 10,000 -1,140 Descending Denver TRACON
03:43PM 40.0833 -104.5333 349° North 279 321 8,800 -960 Descending Denver TRACON
03:45PM 40.0892 -104.6272 275° West 230 265 8,000 -360 Descending Denver Center
03:46PM 40.0492 -104.6692 219° Southwest 188 216 8,100 -300 Climbing Denver Center
03:47PM 40.0056 -104.6858 196° South 165 190 7,400 -780 Descending Denver Center
03:48PM 39.9567 -104.6861 180° South 160 184 6,500 -780 Descending Denver Center
03:49PM 39.9200 -104.6867 181° South 135 155 5,800 -540 Descending Denver Center
03:50PM 39.8828 -104.6872 181° South 133 153 5,400 -420 Descending Denver Center
03:52PM 39.8617 -104.6732 199° South  Level Estimated
03:59PM 39.8617 -104.6732 199° South  Level Estimated